Time;durP1;ratioP1;P1;durP2;ratioP2;P2;SDS_P1;SDS_P2;PMS_P1;PMS_P2;Temp;Humidity;BMP_temperature;BMP_pressure;BME280_temperature;BME280_humidity;BME280_pressure;Samples;Min_cycle;Max_cycle;Signal;HPM_P1;HPM_P2
2021/12/22 00:01:53;;;;;;;10.67;10.07;;;2.40;77.20;;;;;;5010908;28;20025;-83
2021/12/22 00:04:25;;;;;;;8.70;8.20;;;2.30;77.30;;;;;;5006679;28;20498;-84
2021/12/22 00:06:52;;;;;;;10.50;9.97;;;2.30;77.30;;;;;;4996279;28;20480;-84
2021/12/22 00:09:18;;;;;;;9.37;8.77;;;2.30;77.40;;;;;;4991941;28;20022;-83
2021/12/22 00:11:44;;;;;;;10.13;9.63;;;2.30;77.30;;;;;;5041768;28;20387;-83
2021/12/22 00:14:11;;;;;;;8.93;8.43;;;2.20;77.30;;;;;;5008924;28;20391;-83
2021/12/22 00:16:37;;;;;;;9.67;9.07;;;2.20;77.30;;;;;;5005463;28;20038;-83
2021/12/22 00:19:03;;;;;;;11.40;10.90;;;2.20;77.30;;;;;;5007662;28;20038;-83
2021/12/22 00:21:30;;;;;;;9.63;9.13;;;2.20;77.30;;;;;;4993050;28;20034;-83
2021/12/22 00:23:56;;;;;;;9.20;8.70;;;2.10;77.30;;;;;;5008171;28;20045;-83
2021/12/22 00:26:22;;;;;;;8.40;8.00;;;2.10;77.40;;;;;;5009268;28;20042;-83
2021/12/22 00:28:49;;;;;;;8.97;8.50;;;2.10;77.50;;;;;;5007891;28;20034;-83
2021/12/22 00:31:18;;;;;;;8.20;7.80;;;2.10;77.50;;;;;;5001058;28;20525;-83
2021/12/22 00:33:50;;;;;;;9.73;9.07;;;2.10;77.50;;;;;;5009367;28;20053;-83
2021/12/22 00:36:18;;;;;;;10.27;9.67;;;2.10;77.40;;;;;;4995877;28;20026;-83
2021/12/22 00:38:45;;;;;;;8.70;8.30;;;2.10;77.40;;;;;;4993178;28;20046;-83
2021/12/22 00:41:14;;;;;;;7.93;7.53;;;2.20;77.40;;;;;;5007105;28;20040;-83
2021/12/22 00:43:40;;;;;;;10.00;9.40;;;2.20;77.30;;;;;;4985655;28;20050;-83
2021/12/22 00:46:06;;;;;;;10.83;10.13;;;2.20;77.20;;;;;;5006411;28;20042;-83
2021/12/22 00:48:32;;;;;;;9.67;9.17;;;2.20;77.30;;;;;;4994839;28;20057;-83
2021/12/22 00:50:59;;;;;;;9.00;8.60;;;2.20;77.30;;;;;;5019647;28;20046;-83
2021/12/22 00:53:25;;;;;;;9.27;8.77;;;2.20;77.20;;;;;;5010149;28;20060;-83
2021/12/22 00:55:51;;;;;;;8.90;8.50;;;2.20;77.20;;;;;;5007239;28;20471;-83
2021/12/22 00:58:17;;;;;;;11.97;10.73;;;2.20;77.30;;;;;;5004264;28;20037;-83
2021/12/22 01:00:46;;;;;;;10.10;9.50;;;2.30;77.30;;;;;;5005935;28;20031;-83
2021/12/22 01:03:14;;;;;;;9.50;9.10;;;2.30;77.30;;;;;;5002238;28;20026;-83
2021/12/22 01:05:40;;;;;;;8.80;8.40;;;2.30;77.20;;;;;;4996824;28;20044;-83
2021/12/22 01:08:06;;;;;;;9.73;9.00;;;2.20;77.20;;;;;;5012642;28;20030;-83
2021/12/22 01:10:33;;;;;;;13.33;8.97;;;2.20;77.30;;;;;;4998360;28;20035;-83
2021/12/22 01:13:04;;;;;;;8.77;8.07;;;2.10;77.40;;;;;;4996482;28;20049;-83
2021/12/22 01:15:31;;;;;;;9.13;8.73;;;2.10;77.40;;;;;;5006112;28;20034;-83
2021/12/22 01:18:05;;;;;;;8.50;8.10;;;2.10;77.40;;;;;;5039678;28;20021;-83
2021/12/22 01:20:37;;;;;;;7.70;7.40;;;2.00;77.40;;;;;;5011530;28;20034;-83
2021/12/22 01:23:05;;;;;;;8.43;8.03;;;2.00;77.40;;;;;;5012806;28;20041;-83
2021/12/22 01:25:33;;;;;;;8.10;7.70;;;2.00;77.50;;;;;;5008201;28;20387;-83
2021/12/22 01:27:59;;;;;;;9.10;8.50;;;2.00;77.50;;;;;;4993357;28;20042;-83
2021/12/22 01:30:27;;;;;;;8.17;7.77;;;2.00;77.40;;;;;;5004946;28;20053;-83
2021/12/22 01:32:55;;;;;;;7.40;7.10;;;2.00;77.50;;;;;;4993734;28;20034;-83
2021/12/22 01:35:23;;;;;;;8.23;7.83;;;2.00;77.50;;;;;;4995776;28;20042;-83
2021/12/22 01:37:49;;;;;;;8.63;8.23;;;1.90;77.50;;;;;;5008720;28;20073;-83
2021/12/22 01:40:15;;;;;;;9.47;8.97;;;1.90;77.60;;;;;;5006254;28;20026;-83
2021/12/22 01:42:42;;;;;;;8.07;7.67;;;1.80;77.60;;;;;;4989900;28;20265;-83
2021/12/22 01:45:47;;;;;;;8.60;8.20;;;1.90;78.40;;;;;;5009319;28;20030;-82
2021/12/22 01:51:06;;;;;;;7.80;7.40;;;1.80;77.60;;;;;;5016198;28;20025;-83
2021/12/22 01:53:44;;;;;;;8.10;7.70;;;1.80;77.70;;;;;;4989297;28;20042;-83
2021/12/22 01:58:41;;;;;;;7.47;7.07;;;1.70;77.70;;;;;;5004403;28;20467;-83
2021/12/22 02:01:08;;;;;;;8.77;8.27;;;1.70;77.80;;;;;;4988648;28;20487;-83
2021/12/22 02:03:34;;;;;;;8.13;7.73;;;1.80;77.90;;;;;;5008323;28;20030;-83
2021/12/22 02:06:02;;;;;;;9.03;8.47;;;1.80;77.80;;;;;;5009377;28;20034;-83
2021/12/22 02:08:29;;;;;;;9.00;8.60;;;1.80;77.70;;;;;;5001110;28;20030;-83
2021/12/22 02:10:55;;;;;;;8.90;8.40;;;1.80;77.70;;;;;;5005932;28;20034;-83
2021/12/22 02:13:27;;;;;;;8.83;8.23;;;1.80;77.70;;;;;;5005713;28;20407;-83
2021/12/22 02:15:53;;;;;;;10.33;9.33;;;1.70;77.70;;;;;;5002024;28;20030;-83
2021/12/22 02:18:21;;;;;;;8.07;7.67;;;1.70;77.80;;;;;;5000600;28;20033;-83
2021/12/22 02:20:48;;;;;;;7.67;7.27;;;1.70;77.80;;;;;;4999317;28;20494;-83
2021/12/22 02:23:14;;;;;;;8.40;7.93;;;1.70;77.80;;;;;;5002024;28;20392;-83
2021/12/22 02:25:50;;;;;;;8.93;8.20;;;1.80;77.90;;;;;;5001703;28;20031;-83
2021/12/22 02:28:21;;;;;;;7.33;7.03;;;1.80;77.80;;;;;;5006526;28;20030;-83
2021/12/22 02:30:47;;;;;;;8.10;7.70;;;1.80;77.70;;;;;;5011020;28;20034;-83
2021/12/22 02:33:34;;;;;;;7.20;6.87;;;1.80;77.70;;;;;;5010047;28;20042;-83
2021/12/22 02:38:40;;;;;;;8.10;7.70;;;1.80;77.60;;;;;;5017379;28;20038;-83
2021/12/22 02:41:09;;;;;;;8.30;7.90;;;1.80;77.60;;;;;;5008331;28;20387;-82
2021/12/22 02:43:43;;;;;;;8.27;7.87;;;1.80;77.60;;;;;;5008828;28;20038;-83
2021/12/22 02:46:09;;;;;;;7.90;7.50;;;1.70;77.60;;;;;;5010728;28;20042;-83
2021/12/22 02:48:35;;;;;;;6.67;6.37;;;1.70;77.70;;;;;;5010316;28;20033;-83
2021/12/22 02:51:02;;;;;;;8.03;7.63;;;1.70;77.60;;;;;;5001373;28;20156;-81
2021/12/22 02:53:45;;;;;;;7.23;6.87;;;1.70;77.70;;;;;;5007184;28;20032;-83
2021/12/22 02:57:06;;;;;;;8.37;7.53;;;1.70;77.60;;;;;;5009773;28;20372;-83
2021/12/22 03:00:06;;;;;;;8.00;7.60;;;1.70;77.60;;;;;;4997383;28;20038;-83
2021/12/22 03:04:27;;;;;;;8.97;8.47;;;1.70;77.50;;;;;;5009264;28;20037;-83
2021/12/22 03:09:27;;;;;;;8.33;7.93;;;1.70;77.60;;;;;;5015697;28;20155;-83
2021/12/22 03:11:54;;;;;;;7.67;7.33;;;1.60;77.50;;;;;;5003815;28;20025;-83
2021/12/22 03:14:21;;;;;;;7.83;7.43;;;1.60;77.60;;;;;;5012471;28;20056;-83
2021/12/22 03:16:47;;;;;;;8.10;7.70;;;1.60;77.60;;;;;;5003350;28;20046;-83
2021/12/22 03:19:15;;;;;;;7.53;7.23;;;1.50;77.60;;;;;;5003638;28;20042;-83
2021/12/22 03:21:42;;;;;;;8.43;8.03;;;1.50;77.70;;;;;;5009680;28;20030;-83
2021/12/22 03:24:09;;;;;;;7.57;7.27;;;1.50;77.70;;;;;;5000189;28;20391;-83
2021/12/22 03:26:41;;;;;;;8.60;7.90;;;1.50;77.70;;;;;;5003522;28;20049;-83
2021/12/22 03:29:08;;;;;;;8.20;7.80;;;1.50;77.80;;;;;;5009145;28;20038;-82
2021/12/22 03:31:34;;;;;;;8.20;7.70;;;1.50;77.80;;;;;;4987748;28;20481;-83
2021/12/22 03:34:00;;;;;;;7.67;7.27;;;1.40;77.70;;;;;;4972252;28;20046;-83
2021/12/22 03:36:26;;;;;;;7.23;6.93;;;1.40;77.80;;;;;;4991741;28;20391;-83
2021/12/22 03:38:53;;;;;;;7.50;7.20;;;1.40;77.80;;;;;;5007271;28;20053;-83
2021/12/22 03:41:19;;;;;;;8.93;8.33;;;1.50;77.80;;;;;;4989440;28;20388;-83
2021/12/22 03:43:45;;;;;;;9.77;9.13;;;1.50;77.80;;;;;;4991974;28;20041;-82
2021/12/22 03:46:11;;;;;;;8.63;8.23;;;1.40;77.80;;;;;;4998480;28;20045;-83
2021/12/22 03:48:37;;;;;;;7.40;7.10;;;1.50;77.90;;;;;;4996720;28;20061;-83
2021/12/22 03:51:03;;;;;;;7.93;7.53;;;1.50;77.90;;;;;;4997023;28;20037;-82
2021/12/22 03:53:29;;;;;;;7.60;7.27;;;1.50;77.80;;;;;;5001055;28;20054;-82
2021/12/22 03:55:55;;;;;;;8.57;8.17;;;1.50;77.90;;;;;;4993977;28;20050;-82
2021/12/22 03:58:22;;;;;;;8.43;7.77;;;1.50;77.90;;;;;;5011393;28;20383;-81
2021/12/22 04:00:51;;;;;;;8.20;7.80;;;1.60;77.80;;;;;;5001144;28;20046;-82
2021/12/22 04:03:20;;;;;;;7.57;7.27;;;1.70;77.80;;;;;;5010026;28;20026;-82
2021/12/22 04:05:46;;;;;;;8.50;8.07;;;1.70;77.60;;;;;;5040132;28;20054;-82
2021/12/22 04:08:15;;;;;;;7.93;7.53;;;1.70;77.50;;;;;;4984586;28;20061;-82
2021/12/22 04:10:41;;;;;;;9.50;8.53;;;1.70;77.50;;;;;;5008747;28;20030;-82
2021/12/22 04:13:08;;;;;;;8.87;8.30;;;1.70;77.50;;;;;;5009636;28;20048;-82
2021/12/22 04:15:34;;;;;;;7.40;7.10;;;1.70;77.60;;;;;;5007870;28;20040;-82
2021/12/22 04:18:00;;;;;;;9.07;8.63;;;1.70;77.60;;;;;;5010793;28;20029;-82
2021/12/22 04:20:28;;;;;;;11.50;9.33;;;1.70;77.50;;;;;;4987688;28;20380;-82
2021/12/22 04:22:55;;;;;;;8.20;7.80;;;1.70;77.50;;;;;;4997647;28;20041;-82
2021/12/22 04:25:21;;;;;;;10.27;9.77;;;1.70;77.70;;;;;;5004800;28;20036;-82
2021/12/22 04:27:48;;;;;;;8.60;8.20;;;1.70;77.90;;;;;;5009537;28;20060;-82
2021/12/22 04:30:14;;;;;;;9.27;8.40;;;1.70;77.70;;;;;;5006885;28;20029;-83
2021/12/22 04:32:40;;;;;;;7.53;7.17;;;1.70;77.70;;;;;;5039385;28;20038;-82
2021/12/22 04:35:07;;;;;;;9.53;9.03;;;1.70;78.40;;;;;;5003969;28;20064;-80
2021/12/22 04:37:33;;;;;;;7.80;7.40;;;1.80;77.70;;;;;;4991097;28;20492;-82
2021/12/22 04:39:59;;;;;;;8.47;8.07;;;1.80;77.70;;;;;;5007512;28;20041;-81
2021/12/22 04:42:25;;;;;;;8.97;8.27;;;1.80;77.60;;;;;;5016066;28;20037;-81
2021/12/22 04:44:54;;;;;;;9.33;8.77;;;1.80;77.70;;;;;;5011058;28;20041;-82
2021/12/22 04:47:20;;;;;;;8.40;8.00;;;1.80;77.70;;;;;;5007446;28;20065;-81
2021/12/22 04:49:47;;;;;;;8.53;8.03;;;1.80;77.70;;;;;;5006031;28;20038;-82
2021/12/22 04:52:17;;;;;;;7.20;6.90;;;1.90;77.70;;;;;;4994605;28;20416;-82
2021/12/22 04:54:52;;;;;;;8.95;8.55;;;1.90;77.60;;;;;;5014444;28;20030;-82
2021/12/22 04:57:18;;;;;;;8.23;7.83;;;1.80;77.50;;;;;;5011030;28;20025;-82
2021/12/22 04:59:44;;;;;;;8.73;8.33;;;1.80;77.60;;;;;;5010285;28;20033;-81
2021/12/22 05:02:10;;;;;;;9.23;8.73;;;1.70;77.70;;;;;;4979157;28;20035;-82
2021/12/22 05:04:36;;;;;;;7.70;7.37;;;1.60;77.70;;;;;;5001206;28;20052;-82
2021/12/22 05:07:03;;;;;;;9.70;9.20;;;1.60;77.90;;;;;;4995256;28;20057;-82
2021/12/22 05:09:29;;;;;;;9.00;8.43;;;1.50;78.00;;;;;;5014616;28;20467;-82
2021/12/22 05:11:55;;;;;;;8.50;8.10;;;1.50;78.00;;;;;;4994357;28;20049;-82
2021/12/22 05:14:21;;;;;;;9.13;8.53;;;1.50;78.00;;;;;;5010864;28;20033;-81
2021/12/22 05:16:51;;;;;;;7.60;7.30;;;1.60;78.00;;;;;;5007182;28;20034;-82
2021/12/22 05:19:17;;;;;;;9.27;8.68;;;1.50;77.90;;;;;;5008179;28;20026;-82
2021/12/22 05:21:44;;;;;;;7.73;7.40;;;1.50;78.00;;;;;;5010602;28;20049;-81
2021/12/22 05:24:10;;;;;;;8.00;7.60;;;1.50;78.00;;;;;;5009588;28;20026;-82
2021/12/22 05:26:37;;;;;;;7.83;7.50;;;1.60;78.00;;;;;;5010652;28;20053;-82
2021/12/22 05:29:03;;;;;;;8.47;8.07;;;1.60;78.00;;;;;;4993990;28;20048;-84
2021/12/22 05:31:29;;;;;;;8.83;8.13;;;1.60;78.00;;;;;;5009975;28;20056;-81
2021/12/22 05:33:56;;;;;;;8.03;7.63;;;1.50;78.00;;;;;;4994191;28;20656;-79
2021/12/22 05:36:22;;;;;;;8.80;8.40;;;1.50;78.00;;;;;;5010647;28;20033;-79
2021/12/22 05:38:48;;;;;;;8.27;7.87;;;1.50;78.00;;;;;;5009168;28;20034;-78
2021/12/22 05:41:15;;;;;;;8.20;7.63;;;1.50;78.00;;;;;;5011266;28;20403;-78
2021/12/22 05:43:41;;;;;;;8.50;8.10;;;1.50;78.00;;;;;;4989102;28;20046;-78
2021/12/22 05:46:07;;;;;;;7.63;7.33;;;1.50;78.80;;;;;;4993043;28;20077;-79
2021/12/22 05:48:33;;;;;;;8.03;7.63;;;1.50;78.00;;;;;;5013381;28;20040;-80
2021/12/22 05:51:01;;;;;;;10.07;9.40;;;1.50;77.90;;;;;;5008798;28;20046;-79
2021/12/22 05:53:28;;;;;;;9.17;8.77;;;1.50;77.90;;;;;;5011931;28;20387;-82
2021/12/22 05:55:54;;;;;;;8.53;8.13;;;1.50;78.10;;;;;;5007453;28;20034;-82
2021/12/22 05:58:21;;;;;;;8.83;8.33;;;1.50;78.10;;;;;;5009720;28;20042;-82
2021/12/22 06:00:47;;;;;;;8.77;8.33;;;1.50;78.10;;;;;;4993407;28;20033;-82
2021/12/22 06:03:13;;;;;;;9.70;9.20;;;1.50;78.10;;;;;;5012981;28;20395;-82
2021/12/22 06:05:40;;;;;;;9.53;9.03;;;1.40;78.00;;;;;;5015192;28;20471;-82
2021/12/22 06:08:06;;;;;;;8.43;7.73;;;1.40;78.10;;;;;;5015415;28;20379;-82
2021/12/22 06:10:34;;;;;;;8.57;8.17;;;1.40;78.20;;;;;;5012617;28;20448;-83
2021/12/22 06:13:08;;;;;;;8.40;8.00;;;1.50;78.20;;;;;;4994751;28;20065;-82
2021/12/22 06:15:34;;;;;;;8.37;7.97;;;1.50;78.10;;;;;;5009987;28;20042;-83
2021/12/22 06:18:01;;;;;;;10.40;9.70;;;1.50;78.10;;;;;;5012957;28;20033;-83
2021/12/22 06:20:28;;;;;;;9.07;8.57;;;1.50;78.10;;;;;;5013965;28;20037;-82
2021/12/22 06:22:54;;;;;;;8.67;8.27;;;1.50;78.00;;;;;;5014139;28;20475;-83
2021/12/22 06:25:21;;;;;;;8.20;7.80;;;1.50;77.90;;;;;;5013979;28;20037;-82
2021/12/22 06:27:47;;;;;;;8.70;8.20;;;1.50;78.70;;;;;;5013593;28;20052;-82
2021/12/22 06:30:13;;;;;;;8.60;8.20;;;1.50;77.90;;;;;;5012788;28;20038;-81
2021/12/22 06:32:39;;;;;;;9.97;9.37;;;1.40;77.90;;;;;;5010595;28;20029;-84
2021/12/22 06:35:06;;;;;;;9.47;9.07;;;1.40;78.00;;;;;;5013061;28;20364;-83
2021/12/22 06:37:32;;;;;;;9.23;8.83;;;1.40;78.20;;;;;;5012064;28;20398;-81
2021/12/22 06:39:58;;;;;;;11.63;10.93;;;1.30;78.90;;;;;;5012042;28;20037;-81
2021/12/22 06:42:24;;;;;;;8.43;8.03;;;1.40;78.20;;;;;;5011956;28;20399;-82
2021/12/22 06:44:50;;;;;;;9.37;8.90;;;1.30;78.10;;;;;;5011752;28;20029;-83
2021/12/22 06:47:16;;;;;;;10.60;10.10;;;1.30;78.10;;;;;;4996619;28;20049;-80
2021/12/22 06:49:43;;;;;;;8.97;8.57;;;1.30;78.20;;;;;;5010316;28;20041;-81
2021/12/22 06:52:09;;;;;;;8.87;8.47;;;1.30;78.30;;;;;;5010637;28;20041;-82
2021/12/22 06:54:35;;;;;;;9.70;9.17;;;1.20;78.20;;;;;;4993908;28;20038;-81
2021/12/22 06:57:01;;;;;;;9.80;9.30;;;1.30;78.30;;;;;;4986112;28;20822;-82
2021/12/22 06:59:27;;;;;;;9.40;9.00;;;1.20;78.20;;;;;;5007898;28;20403;-82
2021/12/22 07:01:53;;;;;;;10.23;9.73;;;1.20;78.30;;;;;;5008181;28;20042;-83
2021/12/22 07:04:19;;;;;;;10.20;9.70;;;1.20;78.30;;;;;;5010253;28;20399;-83
2021/12/22 07:06:46;;;;;;;9.03;8.60;;;1.20;78.40;;;;;;4992415;28;20057;-82
2021/12/22 07:09:12;;;;;;;10.53;9.90;;;1.20;78.30;;;;;;5012135;28;20026;-82
2021/12/22 07:11:38;;;;;;;9.63;9.13;;;1.20;78.30;;;;;;5010831;28;20038;-82
2021/12/22 07:14:06;;;;;;;9.23;8.83;;;1.20;78.40;;;;;;4992328;28;20049;-82
2021/12/22 07:16:32;;;;;;;9.23;8.70;;;1.10;78.40;;;;;;4993078;28;20041;-83
2021/12/22 07:18:58;;;;;;;9.73;9.23;;;1.10;78.50;;;;;;4990657;28;20588;-82
2021/12/22 07:21:25;;;;;;;9.33;8.90;;;1.10;78.50;;;;;;4991054;28;20490;-83
2021/12/22 07:23:51;;;;;;;10.97;10.37;;;1.10;78.50;;;;;;5010396;28;20105;-86
2021/12/22 07:26:17;;;;;;;9.07;8.67;;;1.10;78.50;;;;;;5010701;28;20034;-83
2021/12/22 07:28:45;;;;;;;9.50;9.00;;;1.10;78.50;;;;;;5007828;28;20209;-81
2021/12/22 07:31:11;;;;;;;11.43;10.33;;;1.10;78.60;;;;;;5005954;28;20042;-81
2021/12/22 07:33:38;;;;;;;8.60;8.20;;;1.10;78.60;;;;;;5009284;28;20045;-80
2021/12/22 07:36:05;;;;;;;8.83;8.40;;;1.20;78.70;;;;;;5007022;28;20049;-81
2021/12/22 07:38:40;;;;;;;10.33;9.83;;;1.20;78.60;;;;;;5010686;28;20038;-82
2021/12/22 07:41:07;;;;;;;9.87;9.37;;;1.20;78.40;;;;;;5004904;28;20037;-83
2021/12/22 07:43:34;;;;;;;11.57;10.87;;;1.20;78.40;;;;;;4990583;28;20036;-84
2021/12/22 07:46:00;;;;;;;9.97;9.47;;;1.20;78.40;;;;;;5004265;28;20034;-83
2021/12/22 07:48:26;;;;;;;9.40;9.00;;;1.20;78.50;;;;;;5008738;28;20478;-82
2021/12/22 07:50:53;;;;;;;9.57;9.17;;;1.30;78.50;;;;;;4992781;28;20038;-83
2021/12/22 07:53:19;;;;;;;12.70;9.20;;;1.30;78.50;;;;;;5010216;28;20467;-83
2021/12/22 07:55:45;;;;;;;9.47;9.03;;;1.30;78.40;;;;;;5010490;28;20060;-81
2021/12/22 07:58:11;;;;;;;9.83;9.33;;;1.40;78.50;;;;;;5006073;28;20502;-84
2021/12/22 08:00:37;;;;;;;10.63;10.13;;;1.40;78.40;;;;;;4990330;28;20033;-83
2021/12/22 08:03:04;;;;;;;9.53;9.13;;;1.40;78.30;;;;;;5006057;28;20026;-82
2021/12/22 08:05:30;;;;;;;9.90;9.40;;;1.40;78.30;;;;;;5008314;28;20383;-83
2021/12/22 08:07:58;;;;;;;10.03;9.53;;;1.40;78.40;;;;;;4988824;28;20042;-83
2021/12/22 08:10:24;;;;;;;10.80;10.30;;;1.30;78.40;;;;;;5010441;28;20030;-83
2021/12/22 08:12:50;;;;;;;10.63;10.07;;;1.30;78.40;;;;;;5010219;28;20036;-83
2021/12/22 08:15:16;;;;;;;11.43;10.83;;;1.30;78.50;;;;;;5008360;28;20026;-83
2021/12/22 08:17:42;;;;;;;9.17;8.77;;;1.20;78.50;;;;;;4992419;28;20042;-82
2021/12/22 08:20:09;;;;;;;8.73;8.33;;;1.20;78.60;;;;;;5005400;28;20053;-83
2021/12/22 08:22:35;;;;;;;9.20;8.80;;;1.20;78.60;;;;;;5006312;28;20499;-82
2021/12/22 08:25:02;;;;;;;9.33;8.83;;;1.30;78.70;;;;;;4986300;28;20061;-83
2021/12/22 08:27:29;;;;;;;9.47;8.87;;;1.30;78.70;;;;;;5007524;28;20399;-84
2021/12/22 08:29:55;;;;;;;8.60;8.20;;;1.30;78.70;;;;;;5001443;28;20034;-82
2021/12/22 08:32:21;;;;;;;8.73;8.33;;;1.40;78.50;;;;;;5006756;28;20403;-82
2021/12/22 08:34:53;;;;;;;10.10;9.53;;;1.40;78.50;;;;;;4990956;28;20042;-82
2021/12/22 08:40:05;;;;;;;9.87;9.37;;;1.50;78.40;;;;;;5029956;28;20049;-80
2021/12/22 08:42:31;;;;;;;10.03;9.43;;;1.50;78.20;;;;;;5009822;28;20037;-79
2021/12/22 08:44:57;;;;;;;9.27;8.87;;;1.60;78.30;;;;;;4995410;28;20029;-83
2021/12/22 08:47:23;;;;;;;8.63;8.23;;;1.60;78.30;;;;;;4996925;28;20046;-80
2021/12/22 08:49:49;;;;;;;9.40;9.00;;;1.60;78.30;;;;;;4994661;28;20022;-78
2021/12/22 08:52:15;;;;;;;10.43;9.83;;;1.50;78.30;;;;;;5003948;28;20038;-80
2021/12/22 08:54:41;;;;;;;10.20;9.50;;;1.50;78.30;;;;;;4992315;28;20049;-80
2021/12/22 08:57:08;;;;;;;11.10;10.50;;;1.50;78.50;;;;;;5010308;28;20036;-82
2021/12/22 08:59:34;;;;;;;10.63;10.10;;;1.50;78.50;;;;;;4972542;28;20046;-83
2021/12/22 09:02:00;;;;;;;9.83;9.17;;;1.40;78.50;;;;;;4998988;28;20038;-83
2021/12/22 09:04:26;;;;;;;12.07;10.93;;;1.40;78.50;;;;;;5003040;28;20035;-83
2021/12/22 09:06:52;;;;;;;9.10;8.70;;;1.50;78.60;;;;;;4999379;28;20037;-86
2021/12/22 09:09:19;;;;;;;10.07;9.57;;;1.50;78.60;;;;;;4992338;28;20499;-84
2021/12/22 09:11:46;;;;;;;10.50;9.83;;;1.50;78.50;;;;;;5002459;28;20030;-80
2021/12/22 09:14:12;;;;;;;9.87;9.27;;;1.50;78.50;;;;;;5001780;28;20030;-81
2021/12/22 09:16:38;;;;;;;9.03;8.53;;;1.50;78.50;;;;;;5002996;28;20410;-84
2021/12/22 09:19:05;;;;;;;8.90;8.50;;;1.60;78.90;;;;;;4985488;28;20042;-81
2021/12/22 09:21:31;;;;;;;11.53;10.90;;;1.90;79.10;;;;;;5011125;28;20392;-81
2021/12/22 09:23:57;;;;;;;10.00;9.40;;;2.20;78.40;;;;;;5008004;28;20053;-82
2021/12/22 09:26:23;;;;;;;10.10;9.53;;;2.30;77.80;;;;;;5009336;28;20463;-80
2021/12/22 09:28:51;;;;;;;9.97;9.37;;;2.20;77.60;;;;;;5000288;28;20031;-80
2021/12/22 09:31:17;;;;;;;9.40;8.70;;;2.10;77.70;;;;;;5004084;28;20134;-80
2021/12/22 09:33:44;;;;;;;12.03;11.23;;;2.00;77.90;;;;;;5003067;28;20049;-80
2021/12/22 09:36:10;;;;;;;10.47;9.87;;;2.00;78.10;;;;;;4996356;28;20037;-80
2021/12/22 09:38:37;;;;;;;10.13;9.53;;;2.00;78.20;;;;;;5011252;28;20483;-80
2021/12/22 09:41:04;;;;;;;10.10;9.60;;;2.00;78.10;;;;;;4997317;28;20037;-79
2021/12/22 09:43:30;;;;;;;10.23;9.73;;;2.00;78.10;;;;;;5006452;28;20025;-78
2021/12/22 09:46:01;;;;;;;10.07;9.57;;;2.00;78.60;;;;;;5008004;28;20038;-79
2021/12/22 09:49:20;;;;;;;10.00;9.50;;;1.90;78.10;;;;;;5010938;28;20038;-79
2021/12/22 09:53:43;;;;;;;10.50;10.00;;;1.90;78.20;;;;;;5011739;28;20446;-76
2021/12/22 09:56:10;;;;;;;9.60;9.20;;;1.90;78.30;;;;;;5015795;28;20510;-75
2021/12/22 09:58:41;;;;;;;10.43;9.90;;;1.90;78.20;;;;;;5013227;28;20402;-74
2021/12/22 10:01:07;;;;;;;;;;;1.90;78.20;;;;;;5003182;28;20404;-77
2021/12/22 10:03:34;;;;;;;9.57;9.17;;;2.00;78.20;;;;;;5007296;28;19945;-77
2021/12/22 10:06:00;;;;;;;10.77;10.27;;;1.90;78.10;;;;;;5012802;28;22235;-74
2021/12/22 10:08:26;;;;;;;8.60;8.20;;;1.90;78.10;;;;;;4993620;28;20046;-75
2021/12/22 10:11:04;;;;;;;9.73;9.23;;;1.90;78.20;;;;;;4991357;28;20030;-76
2021/12/22 10:13:30;;;;;;;8.80;8.40;;;1.80;79.00;;;;;;4991474;28;20491;-79
2021/12/22 10:15:56;;;;;;;15.50;14.40;;;1.90;78.50;;;;;;4991002;28;20041;-80
2021/12/22 10:18:27;;;;;;;11.17;10.33;;;2.20;78.80;;;;;;4986135;28;20037;-78
2021/12/22 10:21:14;;;;;;;9.40;8.80;;;2.60;78.70;;;;;;4995891;28;20049;-79
2021/12/22 10:23:48;;;;;;;9.17;8.77;;;2.80;77.90;;;;;;5007105;28;20038;-80
2021/12/22 10:26:18;;;;;;;10.20;9.70;;;3.10;77.60;;;;;;5008444;28;20036;-76
2021/12/22 10:28:48;;;;;;;11.93;11.33;;;3.20;77.30;;;;;;5005702;28;20042;-77
2021/12/22 10:31:14;;;;;;;10.07;9.57;;;3.20;76.80;;;;;;5011329;28;20034;-76
2021/12/22 10:33:41;;;;;;;10.83;10.13;;;3.20;77.10;;;;;;4992554;28;20057;-76
2021/12/22 10:36:18;;;;;;;9.40;9.00;;;3.20;77.30;;;;;;4994303;28;20026;-83
2021/12/22 10:39:01;;;;;;;8.97;8.57;;;3.30;77.10;;;;;;4991112;28;20415;-85
2021/12/22 10:41:28;;;;;;;11.00;10.50;;;3.20;76.90;;;;;;5010342;28;20056;-77
2021/12/22 10:43:54;;;;;;;11.13;10.33;;;3.20;77.00;;;;;;5007467;28;20022;-80
2021/12/22 10:46:27;;;;;;;10.33;9.83;;;3.20;77.00;;;;;;5005860;28;20034;-79
2021/12/22 10:49:20;;;;;;;11.17;10.47;;;3.20;77.20;;;;;;4997119;28;20037;-80
2021/12/22 10:51:57;;;;;;;12.60;11.73;;;3.40;77.60;;;;;;4982641;28;20495;-80
2021/12/22 10:54:31;;;;;;;13.27;11.77;;;3.80;77.40;;;;;;5009648;28;20023;-80
2021/12/22 10:56:57;;;;;;;9.30;8.90;;;4.00;76.60;;;;;;4987335;28;20033;-80
2021/12/22 10:59:24;;;;;;;9.27;8.87;;;4.20;76.20;;;;;;5013786;28;20022;-80
2021/12/22 11:01:53;;;;;;;10.00;9.40;;;4.10;76.00;;;;;;5012552;28;20117;-79
2021/12/22 11:04:23;;;;;;;9.03;8.63;;;4.00;76.10;;;;;;5011258;28;20025;-77
2021/12/22 11:06:52;;;;;;;10.55;10.05;;;3.90;75.90;;;;;;5011589;28;20391;-77
2021/12/22 11:09:18;;;;;;;9.40;9.00;;;3.70;75.90;;;;;;4993731;28;20491;-77
2021/12/22 11:11:45;;;;;;;12.50;11.83;;;3.50;76.40;;;;;;4995542;28;20093;-79
2021/12/22 11:14:25;;;;;;;10.33;9.63;;;3.20;76.70;;;;;;5008268;28;20491;-79
2021/12/22 11:17:11;;;;;;;9.90;9.40;;;3.10;77.10;;;;;;5023971;28;20033;-76
2021/12/22 11:19:38;;;;;;;9.37;8.97;;;3.00;77.20;;;;;;5009126;28;20034;-82
2021/12/22 11:22:14;;;;;;;9.47;8.93;;;2.90;77.30;;;;;;5009668;28;20052;-79
2021/12/22 11:24:53;;;;;;;9.10;8.70;;;2.70;77.40;;;;;;5009319;28;20030;-83
2021/12/22 11:27:21;;;;;;;8.83;8.43;;;2.70;77.60;;;;;;5010472;28;20395;-80
2021/12/22 11:29:54;;;;;;;10.53;9.93;;;2.70;77.70;;;;;;5011859;28;20379;-85
2021/12/22 11:32:21;;;;;;;11.93;11.13;;;2.70;77.70;;;;;;5008715;28;20022;-81
2021/12/22 11:34:49;;;;;;;9.00;8.60;;;2.70;77.60;;;;;;5007784;28;20127;-81
2021/12/22 11:37:15;;;;;;;10.43;9.83;;;2.80;77.60;;;;;;5009291;28;20629;-78
2021/12/22 11:39:41;;;;;;;11.03;10.33;;;2.80;77.60;;;;;;5008487;28;20033;-77
2021/12/22 11:42:09;;;;;;;9.77;9.17;;;2.90;77.50;;;;;;5010423;28;20038;-80
2021/12/22 11:44:36;;;;;;;9.40;9.00;;;2.80;77.30;;;;;;5012002;28;20038;-82
2021/12/22 11:47:05;;;;;;;11.33;10.53;;;2.70;77.40;;;;;;5006159;28;20042;-82
2021/12/22 11:49:34;;;;;;;10.17;9.57;;;2.70;77.40;;;;;;5021320;28;20034;-81
2021/12/22 11:52:30;;;;;;;9.90;9.20;;;2.70;77.50;;;;;;5009477;28;20026;-85
2021/12/22 11:55:07;;;;;;;9.43;8.90;;;2.70;77.50;;;;;;5010617;28;20038;-85
2021/12/22 11:57:33;;;;;;;10.87;10.03;;;2.70;77.50;;;;;;5008962;28;20039;-81
2021/12/22 12:00:19;;;;;;;12.10;11.30;;;2.70;77.70;;;;;;5009208;28;20034;-83
2021/12/22 12:02:45;;;;;;;11.23;10.43;;;3.00;78.20;;;;;;5007172;28;20041;-81
2021/12/22 12:05:31;;;;;;;10.47;9.87;;;3.40;78.00;;;;;;5008824;28;20043;-81
2021/12/22 12:08:07;;;;;;;11.67;10.60;;;3.70;77.80;;;;;;5009288;28;20086;-83
2021/12/22 12:10:40;;;;;;;11.20;10.60;;;4.00;77.30;;;;;;4992361;28;20038;-83
2021/12/22 12:13:17;;;;;;;11.13;10.43;;;4.20;77.00;;;;;;5004744;28;20030;-79
2021/12/22 12:21:50;;;;;;;10.20;9.63;;;4.60;76.90;;;;;;5013369;28;20049;-81
2021/12/22 12:24:35;;;;;;;11.03;10.43;;;4.70;76.80;;;;;;5025399;28;20030;-80
2021/12/22 12:27:23;;;;;;;12.70;11.90;;;4.90;76.60;;;;;;5007796;28;20047;-81
2021/12/22 12:29:56;;;;;;;12.73;11.70;;;5.00;76.40;;;;;;4986861;28;20042;-83
2021/12/22 12:32:40;;;;;;;11.30;10.50;;;5.10;77.40;;;;;;4966701;28;20491;-83
2021/12/22 12:35:28;;;;;;;9.93;9.43;;;5.10;76.50;;;;;;4987585;28;20523;-83
2021/12/22 12:38:01;;;;;;;12.47;11.87;;;5.10;76.20;;;;;;4989766;28;20495;-81
2021/12/22 12:40:55;;;;;;;12.10;11.33;;;4.80;75.80;;;;;;4987235;28;20428;-81
2021/12/22 12:43:40;;;;;;;11.83;11.13;;;4.40;76.20;;;;;;4983778;28;20038;-81
2021/12/22 12:46:24;;;;;;;13.87;13.00;;;4.00;76.70;;;;;;4988395;28;20106;-81
2021/12/22 12:48:54;;;;;;;11.70;11.07;;;3.80;77.10;;;;;;4974407;28;20061;-81
2021/12/22 12:51:32;;;;;;;14.27;13.40;;;3.60;77.30;;;;;;4960805;28;20061;-82
2021/12/22 12:54:04;;;;;;;9.40;8.90;;;3.50;77.60;;;;;;4974152;28;20631;-82
2021/12/22 12:56:34;;;;;;;9.83;9.23;;;3.30;77.50;;;;;;4971236;28;20495;-82
2021/12/22 12:59:13;;;;;;;11.13;9.60;;;3.30;77.70;;;;;;4976581;28;20053;-81
2021/12/22 13:01:50;;;;;;;11.33;10.43;;;3.20;77.70;;;;;;4970595;28;20042;-79
2021/12/22 13:04:18;;;;;;;8.93;8.53;;;3.10;77.70;;;;;;4984958;28;20037;-79
2021/12/22 13:06:45;;;;;;;8.80;8.40;;;3.10;77.80;;;;;;4991268;28;20038;-79
2021/12/22 13:09:27;;;;;;;10.90;10.30;;;3.00;77.70;;;;;;5008408;28;20037;-78
2021/12/22 13:12:03;;;;;;;11.03;10.33;;;3.00;77.70;;;;;;5009729;28;20034;-78
2021/12/22 13:17:15;;;;;;;9.73;9.13;;;2.90;77.90;;;;;;4997770;28;20045;-79
2021/12/22 13:19:43;;;;;;;8.73;8.33;;;2.90;77.80;;;;;;4991619;28;20042;-78
2021/12/22 13:22:22;;;;;;;9.47;8.97;;;2.90;77.80;;;;;;5005882;28;20400;-78
2021/12/22 13:24:48;;;;;;;10.97;10.27;;;3.00;77.80;;;;;;5017019;28;20053;-79
2021/12/22 13:27:30;;;;;;;10.57;9.90;;;3.00;77.80;;;;;;5007820;28;20034;-78
2021/12/22 13:30:10;;;;;;;9.10;8.70;;;3.00;77.70;;;;;;5017688;28;20042;-78